sensor_id;sensor_type;location;lat;lon;timestamp;P1;durP1;ratioP1;P2;durP2;ratioP2
66721;SDS011;53633;49.932;10.884;2024-01-30T08:27:01;16.55;;;6.82;;
66721;SDS011;53633;49.932;10.884;2024-01-30T08:29:27;17.27;;;7.03;;
66721;SDS011;53633;49.932;10.884;2024-01-30T08:31:54;16.27;;;6.70;;
66721;SDS011;53633;49.932;10.884;2024-01-30T08:34:21;17.67;;;7.13;;
66721;SDS011;53633;49.932;10.884;2024-01-30T08:36:48;14.23;;;6.83;;
66721;SDS011;53633;49.932;10.884;2024-01-30T08:39:15;17.98;;;7.13;;
66721;SDS011;53633;49.932;10.884;2024-01-30T08:41:41;16.27;;;7.35;;
66721;SDS011;53633;49.932;10.884;2024-01-30T08:44:10;19.95;;;7.25;;
66721;SDS011;53633;49.932;10.884;2024-01-30T08:46:36;18.95;;;8.02;;
66721;SDS011;53633;49.932;10.884;2024-01-30T08:49:03;16.90;;;8.50;;
66721;SDS011;53633;49.932;10.884;2024-01-30T08:51:30;20.15;;;8.05;;
66721;SDS011;53633;49.932;10.884;2024-01-30T08:53:57;19.55;;;8.35;;
66721;SDS011;53633;49.932;10.884;2024-01-30T08:56:24;20.75;;;8.25;;
66721;SDS011;53633;49.932;10.884;2024-01-30T08:58:50;18.70;;;9.15;;
66721;SDS011;53633;49.932;10.884;2024-01-30T09:01:18;17.60;;;8.33;;
66721;SDS011;53633;49.932;10.884;2024-01-30T09:03:45;21.15;;;8.57;;
66721;SDS011;53633;49.932;10.884;2024-01-30T09:06:12;20.40;;;8.07;;
66721;SDS011;53633;49.932;10.884;2024-01-30T09:08:39;15.15;;;7.55;;
66721;SDS011;53633;49.932;10.884;2024-01-30T09:11:08;17.17;;;7.50;;
66721;SDS011;53633;49.932;10.884;2024-01-30T09:13:35;18.10;;;7.50;;
66721;SDS011;53633;49.932;10.884;2024-01-30T09:16:02;17.38;;;7.97;;
66721;SDS011;53633;49.932;10.884;2024-01-30T09:18:30;20.98;;;8.43;;
66721;SDS011;53633;49.932;10.884;2024-01-30T09:20:57;20.27;;;8.00;;
66721;SDS011;53633;49.932;10.884;2024-01-30T09:23:24;20.40;;;8.48;;
66721;SDS011;53633;49.932;10.884;2024-01-30T09:25:50;17.93;;;7.93;;
66721;SDS011;53633;49.932;10.884;2024-01-30T09:28:17;19.35;;;8.27;;
66721;SDS011;53633;49.932;10.884;2024-01-30T09:30:44;18.20;;;8.35;;
66721;SDS011;53633;49.932;10.884;2024-01-30T09:33:11;18.98;;;7.70;;
66721;SDS011;53633;49.932;10.884;2024-01-30T09:35:41;22.10;;;8.70;;
66721;SDS011;53633;49.932;10.884;2024-01-30T09:38:08;21.77;;;8.87;;
66721;SDS011;53633;49.932;10.884;2024-01-30T09:40:35;17.95;;;7.65;;
66721;SDS011;53633;49.932;10.884;2024-01-30T09:43:01;15.40;;;7.07;;
66721;SDS011;53633;49.932;10.884;2024-01-30T09:45:28;16.60;;;7.55;;
66721;SDS011;53633;49.932;10.884;2024-01-30T09:47:58;17.80;;;6.82;;
66721;SDS011;53633;49.932;10.884;2024-01-30T09:50:25;51.80;;;16.23;;
66721;SDS011;53633;49.932;10.884;2024-01-30T09:52:54;18.98;;;8.25;;
66721;SDS011;53633;49.932;10.884;2024-01-30T09:55:21;18.10;;;7.65;;
66721;SDS011;53633;49.932;10.884;2024-01-30T09:57:49;16.80;;;7.72;;
66721;SDS011;53633;49.932;10.884;2024-01-30T10:00:16;16.52;;;6.88;;
66721;SDS011;53633;49.932;10.884;2024-01-30T10:02:43;13.07;;;6.10;;
66721;SDS011;53633;49.932;10.884;2024-01-30T10:05:09;17.73;;;7.30;;
66721;SDS011;53633;49.932;10.884;2024-01-30T10:07:49;15.52;;;7.05;;
66721;SDS011;53633;49.932;10.884;2024-01-30T10:10:18;15.52;;;6.65;;
66721;SDS011;53633;49.932;10.884;2024-01-30T10:12:45;15.73;;;6.55;;
66721;SDS011;53633;49.932;10.884;2024-01-30T10:15:11;16.33;;;6.30;;
66721;SDS011;53633;49.932;10.884;2024-01-30T10:17:40;15.80;;;6.78;;
66721;SDS011;53633;49.932;10.884;2024-01-30T10:20:07;19.10;;;6.95;;
66721;SDS011;53633;49.932;10.884;2024-01-30T10:22:35;22.08;;;6.55;;
66721;SDS011;53633;49.932;10.884;2024-01-30T10:25:01;18.75;;;7.13;;
66721;SDS011;53633;49.932;10.884;2024-01-30T10:27:33;16.80;;;7.00;;
66721;SDS011;53633;49.932;10.884;2024-01-30T10:30:00;17.75;;;7.55;;
66721;SDS011;53633;49.932;10.884;2024-01-30T10:32:26;15.45;;;7.20;;
66721;SDS011;53633;49.932;10.884;2024-01-30T10:34:53;14.35;;;6.97;;
66721;SDS011;53633;49.932;10.884;2024-01-30T10:37:20;15.63;;;7.18;;
66721;SDS011;53633;49.932;10.884;2024-01-30T10:39:52;14.67;;;7.37;;
66721;SDS011;53633;49.932;10.884;2024-01-30T10:42:19;14.68;;;6.97;;
66721;SDS011;53633;49.932;10.884;2024-01-30T10:44:52;15.25;;;6.95;;
66721;SDS011;53633;49.932;10.884;2024-01-30T10:47:26;17.67;;;7.93;;
66721;SDS011;53633;49.932;10.884;2024-01-30T10:49:54;17.98;;;7.38;;
66721;SDS011;53633;49.932;10.884;2024-01-30T10:52:21;19.03;;;7.60;;
66721;SDS011;53633;49.932;10.884;2024-01-30T10:54:49;17.88;;;8.02;;
66721;SDS011;53633;49.932;10.884;2024-01-30T10:57:17;21.75;;;8.60;;
66721;SDS011;53633;49.932;10.884;2024-01-30T10:59:44;20.25;;;8.40;;
66721;SDS011;53633;49.932;10.884;2024-01-30T11:02:12;23.15;;;8.75;;
66721;SDS011;53633;49.932;10.884;2024-01-30T11:04:41;20.27;;;9.30;;
66721;SDS011;53633;49.932;10.884;2024-01-30T11:07:14;27.77;;;9.90;;
66721;SDS011;53633;49.932;10.884;2024-01-30T11:09:47;20.20;;;9.77;;
66721;SDS011;53633;49.932;10.884;2024-01-30T11:12:15;19.02;;;9.27;;
66721;SDS011;53633;49.932;10.884;2024-01-30T11:14:41;21.15;;;8.65;;
66721;SDS011;53633;49.932;10.884;2024-01-30T11:17:08;18.47;;;9.07;;
66721;SDS011;53633;49.932;10.884;2024-01-30T11:19:37;22.17;;;9.63;;
66721;SDS011;53633;49.932;10.884;2024-01-30T11:22:06;19.85;;;9.48;;
66721;SDS011;53633;49.932;10.884;2024-01-30T11:24:38;18.92;;;8.63;;
66721;SDS011;53633;49.932;10.884;2024-01-30T11:27:08;18.50;;;9.35;;
66721;SDS011;53633;49.932;10.884;2024-01-30T11:29:35;17.60;;;8.90;;
66721;SDS011;53633;49.932;10.884;2024-01-30T11:32:02;20.67;;;9.05;;
66721;SDS011;53633;49.932;10.884;2024-01-30T11:34:29;19.60;;;9.07;;
66721;SDS011;53633;49.932;10.884;2024-01-30T11:36:58;18.30;;;8.80;;
66721;SDS011;53633;49.932;10.884;2024-01-30T11:39:26;22.02;;;9.45;;
66721;SDS011;53633;49.932;10.884;2024-01-30T11:41:55;18.77;;;8.57;;
66721;SDS011;53633;49.932;10.884;2024-01-30T11:44:22;19.35;;;9.18;;
66721;SDS011;53633;49.932;10.884;2024-01-30T11:46:49;20.38;;;9.20;;
66721;SDS011;53633;49.932;10.884;2024-01-30T11:49:17;19.83;;;8.25;;
66721;SDS011;53633;49.932;10.884;2024-01-30T11:51:45;19.27;;;8.98;;
66721;SDS011;53633;49.932;10.884;2024-01-30T11:54:13;20.83;;;9.23;;
66721;SDS011;53633;49.932;10.884;2024-01-30T11:56:42;18.75;;;8.50;;
66721;SDS011;53633;49.932;10.884;2024-01-30T11:59:08;21.60;;;9.20;;
66721;SDS011;53633;49.932;10.884;2024-01-30T12:01:35;17.88;;;7.75;;
66721;SDS011;53633;49.932;10.884;2024-01-30T12:04:02;24.58;;;9.15;;
66721;SDS011;53633;49.932;10.884;2024-01-30T12:06:30;21.40;;;8.97;;
66721;SDS011;53633;49.932;10.884;2024-01-30T12:08:57;20.80;;;8.60;;
66721;SDS011;53633;49.932;10.884;2024-01-30T12:11:26;25.33;;;9.02;;
66721;SDS011;53633;49.932;10.884;2024-01-30T12:13:52;22.88;;;8.98;;
66721;SDS011;53633;49.932;10.884;2024-01-30T12:16:20;20.30;;;8.95;;
66721;SDS011;53633;49.932;10.884;2024-01-30T12:18:47;20.97;;;9.30;;
66721;SDS011;53633;49.932;10.884;2024-01-30T12:21:15;23.67;;;8.68;;
66721;SDS011;53633;49.932;10.884;2024-01-30T12:23:42;18.67;;;8.38;;
66721;SDS011;53633;49.932;10.884;2024-01-30T12:26:10;25.10;;;8.57;;
66721;SDS011;53633;49.932;10.884;2024-01-30T12:28:46;17.17;;;7.78;;
66721;SDS011;53633;49.932;10.884;2024-01-30T12:31:14;14.77;;;6.87;;
66721;SDS011;53633;49.932;10.884;2024-01-30T12:33:41;15.60;;;7.05;;
66721;SDS011;53633;49.932;10.884;2024-01-30T12:36:07;16.90;;;7.70;;
66721;SDS011;53633;49.932;10.884;2024-01-30T12:38:34;16.65;;;7.20;;
66721;SDS011;53633;49.932;10.884;2024-01-30T12:41:01;16.73;;;8.48;;
66721;SDS011;53633;49.932;10.884;2024-01-30T12:43:29;15.30;;;7.73;;
66721;SDS011;53633;49.932;10.884;2024-01-30T12:46:05;19.08;;;7.65;;
66721;SDS011;53633;49.932;10.884;2024-01-30T12:48:32;20.08;;;8.75;;
66721;SDS011;53633;49.932;10.884;2024-01-30T12:50:59;18.48;;;8.25;;
66721;SDS011;53633;49.932;10.884;2024-01-30T12:53:26;22.77;;;8.95;;
66721;SDS011;53633;49.932;10.884;2024-01-30T12:55:53;18.17;;;8.27;;
66721;SDS011;53633;49.932;10.884;2024-01-30T12:58:20;17.77;;;8.30;;
66721;SDS011;53633;49.932;10.884;2024-01-30T13:00:47;17.13;;;8.85;;
66721;SDS011;53633;49.932;10.884;2024-01-30T13:03:15;18.00;;;7.40;;
66721;SDS011;53633;49.932;10.884;2024-01-30T13:05:42;18.83;;;8.90;;
66721;SDS011;53633;49.932;10.884;2024-01-30T13:08:09;16.10;;;7.63;;
66721;SDS011;53633;49.932;10.884;2024-01-30T13:10:36;20.67;;;8.30;;
66721;SDS011;53633;49.932;10.884;2024-01-30T13:13:02;19.15;;;8.23;;
66721;SDS011;53633;49.932;10.884;2024-01-30T13:15:30;16.63;;;7.78;;
66721;SDS011;53633;49.932;10.884;2024-01-30T13:17:56;15.50;;;8.38;;
66721;SDS011;53633;49.932;10.884;2024-01-30T13:20:24;15.73;;;7.43;;
66721;SDS011;53633;49.932;10.884;2024-01-30T13:22:51;19.48;;;8.10;;
66721;SDS011;53633;49.932;10.884;2024-01-30T13:25:18;19.95;;;8.38;;
66721;SDS011;53633;49.932;10.884;2024-01-30T13:27:45;15.93;;;7.80;;
66721;SDS011;53633;49.932;10.884;2024-01-30T13:30:11;17.42;;;8.23;;
66721;SDS011;53633;49.932;10.884;2024-01-30T13:32:38;17.10;;;7.73;;
66721;SDS011;53633;49.932;10.884;2024-01-30T13:35:05;16.25;;;7.10;;
66721;SDS011;53633;49.932;10.884;2024-01-30T13:37:33;14.10;;;8.00;;
66721;SDS011;53633;49.932;10.884;2024-01-30T13:40:00;16.98;;;7.72;;
66721;SDS011;53633;49.932;10.884;2024-01-30T13:42:31;16.77;;;7.85;;
66721;SDS011;53633;49.932;10.884;2024-01-30T13:44:58;17.43;;;8.27;;
66721;SDS011;53633;49.932;10.884;2024-01-30T13:47:24;17.17;;;8.32;;
66721;SDS011;53633;49.932;10.884;2024-01-30T13:49:51;22.52;;;9.80;;
66721;SDS011;53633;49.932;10.884;2024-01-30T13:52:18;22.55;;;9.52;;
66721;SDS011;53633;49.932;10.884;2024-01-30T13:54:49;18.88;;;9.07;;
66721;SDS011;53633;49.932;10.884;2024-01-30T13:57:16;20.13;;;7.97;;
66721;SDS011;53633;49.932;10.884;2024-01-30T13:59:42;18.90;;;7.78;;
66721;SDS011;53633;49.932;10.884;2024-01-30T14:02:09;16.20;;;7.68;;
66721;SDS011;53633;49.932;10.884;2024-01-30T14:04:36;18.10;;;8.40;;
66721;SDS011;53633;49.932;10.884;2024-01-30T14:07:03;21.08;;;8.60;;
66721;SDS011;53633;49.932;10.884;2024-01-30T14:09:31;17.47;;;7.53;;
66721;SDS011;53633;49.932;10.884;2024-01-30T14:11:59;24.63;;;11.00;;
66721;SDS011;53633;49.932;10.884;2024-01-30T14:14:26;20.75;;;9.45;;
66721;SDS011;53633;49.932;10.884;2024-01-30T14:16:52;18.27;;;7.78;;
66721;SDS011;53633;49.932;10.884;2024-01-30T14:19:19;19.73;;;8.00;;
66721;SDS011;53633;49.932;10.884;2024-01-30T14:21:46;20.53;;;9.27;;
66721;SDS011;53633;49.932;10.884;2024-01-30T14:24:12;20.50;;;9.80;;
66721;SDS011;53633;49.932;10.884;2024-01-30T14:26:39;20.65;;;10.13;;
66721;SDS011;53633;49.932;10.884;2024-01-30T14:29:07;28.00;;;11.60;;
66721;SDS011;53633;49.932;10.884;2024-01-30T14:31:34;26.58;;;9.90;;
66721;SDS011;53633;49.932;10.884;2024-01-30T14:34:01;31.03;;;11.60;;
66721;SDS011;53633;49.932;10.884;2024-01-30T14:36:28;28.05;;;10.73;;
66721;SDS011;53633;49.932;10.884;2024-01-30T14:38:55;31.85;;;13.02;;
66721;SDS011;53633;49.932;10.884;2024-01-30T14:41:21;30.30;;;11.38;;
66721;SDS011;53633;49.932;10.884;2024-01-30T14:43:48;26.27;;;11.88;;
66721;SDS011;53633;49.932;10.884;2024-01-30T14:46:16;26.13;;;11.17;;
66721;SDS011;53633;49.932;10.884;2024-01-30T14:48:43;25.70;;;11.02;;
66721;SDS011;53633;49.932;10.884;2024-01-30T14:51:10;24.00;;;11.00;;
66721;SDS011;53633;49.932;10.884;2024-01-30T14:53:37;27.83;;;12.55;;
66721;SDS011;53633;49.932;10.884;2024-01-30T14:56:04;27.05;;;12.02;;
66721;SDS011;53633;49.932;10.884;2024-01-30T14:58:31;25.33;;;11.03;;
66721;SDS011;53633;49.932;10.884;2024-01-30T15:00:58;25.67;;;10.57;;
66721;SDS011;53633;49.932;10.884;2024-01-30T15:03:27;27.45;;;11.70;;
66721;SDS011;53633;49.932;10.884;2024-01-30T15:05:55;26.13;;;11.13;;
66721;SDS011;53633;49.932;10.884;2024-01-30T15:08:22;27.65;;;10.95;;
66721;SDS011;53633;49.932;10.884;2024-01-30T15:10:49;27.23;;;11.50;;
66721;SDS011;53633;49.932;10.884;2024-01-30T15:13:18;26.25;;;10.85;;
66721;SDS011;53633;49.932;10.884;2024-01-30T15:15:45;25.42;;;11.77;;
66721;SDS011;53633;49.932;10.884;2024-01-30T15:18:12;23.73;;;9.55;;
66721;SDS011;53633;49.932;10.884;2024-01-30T15:20:40;20.98;;;9.27;;
66721;SDS011;53633;49.932;10.884;2024-01-30T15:23:07;27.83;;;11.67;;
66721;SDS011;53633;49.932;10.884;2024-01-30T15:25:34;25.50;;;10.20;;
66721;SDS011;53633;49.932;10.884;2024-01-30T15:28:01;20.63;;;9.30;;
66721;SDS011;53633;49.932;10.884;2024-01-30T15:30:28;18.40;;;9.13;;
66721;SDS011;53633;49.932;10.884;2024-01-30T15:32:54;20.27;;;9.48;;
66721;SDS011;53633;49.932;10.884;2024-01-30T15:35:21;21.30;;;9.67;;
66721;SDS011;53633;49.932;10.884;2024-01-30T15:37:50;17.30;;;9.25;;
66721;SDS011;53633;49.932;10.884;2024-01-30T15:40:16;22.02;;;9.77;;
66721;SDS011;53633;49.932;10.884;2024-01-30T15:42:43;20.90;;;9.60;;
66721;SDS011;53633;49.932;10.884;2024-01-30T15:45:10;19.23;;;9.45;;
66721;SDS011;53633;49.932;10.884;2024-01-30T15:47:37;19.03;;;9.30;;
66721;SDS011;53633;49.932;10.884;2024-01-30T15:50:04;19.88;;;9.90;;
66721;SDS011;53633;49.932;10.884;2024-01-30T15:52:31;21.35;;;9.52;;
66721;SDS011;53633;49.932;10.884;2024-01-30T15:55:00;24.55;;;10.25;;
66721;SDS011;53633;49.932;10.884;2024-01-30T15:57:26;25.10;;;9.40;;
66721;SDS011;53633;49.932;10.884;2024-01-30T15:59:55;27.30;;;12.03;;
66721;SDS011;53633;49.932;10.884;2024-01-30T16:02:22;23.67;;;11.32;;
66721;SDS011;53633;49.932;10.884;2024-01-30T16:04:50;25.90;;;11.23;;
